createdAt,value
2022-08-18T00:00:58.165Z,23.68
2022-08-18T00:03:54.132Z,23.62
2022-08-18T00:06:06.932Z,23.53
2022-08-18T00:08:30.647Z,23.62
2022-08-18T00:10:54.390Z,23.52
2022-08-18T00:13:19.625Z,23.53
2022-08-18T00:15:48.710Z,23.39
2022-08-18T00:18:12.991Z,23.40
2022-08-18T00:20:36.712Z,23.33
2022-08-18T00:23:00.767Z,23.34
2022-08-18T00:25:25.490Z,23.25
2022-08-18T00:27:49.652Z,23.22
2022-08-18T00:30:18.331Z,23.07
2022-08-18T00:32:45.777Z,23.03
2022-08-18T00:35:13.793Z,23.01
2022-08-18T00:37:37.769Z,22.95
2022-08-18T00:40:01.525Z,23.01
2022-08-18T00:42:30.689Z,22.89
2022-08-18T00:44:55.520Z,22.90
2022-08-18T00:47:32.868Z,22.74
2022-08-18T00:50:04.573Z,22.64
2022-08-18T00:52:28.388Z,22.60
2022-08-18T00:54:55.509Z,22.58
2022-08-18T00:57:21.700Z,22.53
2022-08-18T00:59:49.828Z,22.53
2022-08-18T01:02:21.580Z,22.44
2022-08-18T01:04:51.077Z,22.40
2022-08-18T01:07:22.981Z,22.35
2022-08-18T01:09:46.748Z,22.36
2022-08-18T01:12:33.601Z,22.27
2022-08-18T01:14:55.653Z,22.23
2022-08-18T01:17:38.297Z,22.15
2022-08-18T01:20:20.523Z,22.17
2022-08-18T01:23:00.140Z,22.08
2022-08-18T01:25:41.933Z,22.06
2022-08-18T01:28:06.616Z,21.99
2022-08-18T01:30:31.531Z,21.91
2022-08-18T01:32:55.436Z,21.94
2022-08-18T01:35:21.434Z,21.91
2022-08-18T01:37:45.383Z,21.83
2022-08-18T01:41:27.716Z,21.78
2022-08-18T01:42:58.214Z,21.73
2022-08-18T01:45:22.020Z,21.71
2022-08-18T01:47:58.263Z,21.71
2022-08-18T01:50:22.329Z,21.71
2022-08-18T01:52:46.163Z,21.66
2022-08-18T01:55:12.084Z,21.61
2022-08-18T01:57:43.043Z,21.60
2022-08-18T02:00:08.639Z,21.56
2022-08-18T02:02:36.117Z,21.52
2022-08-18T02:05:06.161Z,21.51
2022-08-18T02:07:36.133Z,21.52
2022-08-18T02:10:00.422Z,21.45
2022-08-18T02:12:27.553Z,21.45
2022-08-18T02:14:53.145Z,21.35
2022-08-18T02:17:16.892Z,21.35
2022-08-18T02:19:43.304Z,21.33
2022-08-18T02:22:09.406Z,21.24
2022-08-18T02:24:33.217Z,21.26
2022-08-18T02:26:57.088Z,21.17
2022-08-18T02:29:22.318Z,21.17
2022-08-18T02:31:46.040Z,21.14
2022-08-18T02:34:09.765Z,21.12
2022-08-18T02:38:59.841Z,21.05
2022-08-18T02:41:23.975Z,21.01
2022-08-18T02:43:48.516Z,20.98
2022-08-18T02:46:13.578Z,20.96
2022-08-18T02:48:37.512Z,20.89
2022-08-18T02:51:03.537Z,20.87
2022-08-18T02:53:28.713Z,20.81
2022-08-18T02:55:52.538Z,20.77
2022-08-18T02:58:16.272Z,20.79
2022-08-18T03:00:40.128Z,20.70
2022-08-18T03:03:05.400Z,20.68
2022-08-18T03:05:30.490Z,20.67
2022-08-18T03:07:54.382Z,20.71
2022-08-18T03:10:33.306Z,20.68
2022-08-18T03:12:57.758Z,20.63
2022-08-18T03:15:21.528Z,20.58
2022-08-18T03:17:45.275Z,20.57
2022-08-18T03:20:11.612Z,20.52
2022-08-18T03:22:35.369Z,20.51
2022-08-18T03:24:59.227Z,20.50
2022-08-18T03:27:23.016Z,20.42
2022-08-18T03:29:46.763Z,20.43
2022-08-18T03:32:10.556Z,20.40
2022-08-18T03:34:34.828Z,20.41
2022-08-18T03:37:00.443Z,20.35
2022-08-18T03:39:25.134Z,20.33
2022-08-18T03:41:58.868Z,20.29
2022-08-18T03:44:25.561Z,20.29
2022-08-18T03:46:50.401Z,20.23
2022-08-18T03:49:14.733Z,20.26
2022-08-18T03:51:39.182Z,20.27
2022-08-18T03:54:06.520Z,20.18
2022-08-18T03:56:33.707Z,20.19
2022-08-18T03:59:01.873Z,20.14
2022-08-18T04:01:29.446Z,20.02
2022-08-18T04:03:57.350Z,19.60
2022-08-18T04:06:30.325Z,19.70
2022-08-18T04:08:55.260Z,19.63
2022-08-18T04:11:21.092Z,19.78
2022-08-18T04:13:44.996Z,19.91
2022-08-18T04:16:09.276Z,19.95
2022-08-18T04:18:33.256Z,19.93
2022-08-18T04:21:00.093Z,20.05
2022-08-18T04:23:24.290Z,20.02
2022-08-18T04:25:48.064Z,20.02
2022-08-18T04:28:13.522Z,20.01
2022-08-18T04:30:38.640Z,20.02
2022-08-18T04:33:06.497Z,20.05
2022-08-18T04:35:31.937Z,20.17
2022-08-18T04:37:56.469Z,20.12
2022-08-18T04:40:25.034Z,20.13
2022-08-18T04:42:49.253Z,20.20
2022-08-18T04:45:14.619Z,20.20
2022-08-18T04:47:42.003Z,20.24
2022-08-18T04:50:06.582Z,20.29
2022-08-18T04:52:49.896Z,20.32
2022-08-18T04:55:13.875Z,20.38
2022-08-18T04:57:37.669Z,20.44
2022-08-18T05:00:01.731Z,20.55
2022-08-18T05:02:27.069Z,20.61
2022-08-18T05:04:51.028Z,20.68
2022-08-18T05:07:18.922Z,20.86
2022-08-18T05:09:43.870Z,20.83
2022-08-18T05:12:09.716Z,20.93
2022-08-18T05:14:33.989Z,21.02
2022-08-18T05:17:00.492Z,21.09
2022-08-18T05:19:26.860Z,21.19
2022-08-18T05:21:53.492Z,21.27
2022-08-18T05:24:25.519Z,21.37
2022-08-18T05:26:51.401Z,21.44
2022-08-18T05:29:18.969Z,21.52
2022-08-18T05:31:44.090Z,21.55
2022-08-18T05:34:08.377Z,21.66
2022-08-18T05:37:00.382Z,21.75
2022-08-18T05:39:29.767Z,21.80
2022-08-18T05:42:01.831Z,21.86
2022-08-18T05:44:31.788Z,21.95
2022-08-18T05:46:58.689Z,22.02
2022-08-18T05:49:23.841Z,22.16
2022-08-18T05:51:52.636Z,22.28
2022-08-18T05:54:35.297Z,22.31
2022-08-18T05:57:05.504Z,22.42
2022-08-18T05:59:34.296Z,22.55
2022-08-18T06:02:03.775Z,22.60
2022-08-18T06:04:42.564Z,22.66
2022-08-18T06:07:14.083Z,22.84
2022-08-18T06:09:44.325Z,22.90
2022-08-18T06:12:21.313Z,23.11
2022-08-18T06:14:45.216Z,23.28
2022-08-18T06:17:35.137Z,23.43
2022-08-18T06:20:05.378Z,23.62
2022-08-18T06:22:48.153Z,23.69
2022-08-18T06:25:27.365Z,23.95
2022-08-18T06:28:03.101Z,24.07
2022-08-18T06:30:46.903Z,24.31
2022-08-18T06:33:29.807Z,24.58
2022-08-18T06:36:02.737Z,24.46
2022-08-18T06:39:00.744Z,24.60
2022-08-18T06:41:42.824Z,24.44
2022-08-18T06:44:13.122Z,24.69
2022-08-18T06:46:47.180Z,24.81
2022-08-18T06:49:16.345Z,24.76
2022-08-18T06:51:41.019Z,24.80
2022-08-18T06:54:09.653Z,24.79
2022-08-18T06:56:49.947Z,24.15
2022-08-18T06:59:34.313Z,24.36
2022-08-18T07:02:04.120Z,24.52
2022-08-18T07:05:05.559Z,24.04
2022-08-18T07:07:40.215Z,24.36
2022-08-18T07:10:09.828Z,24.58
2022-08-18T07:12:33.721Z,24.73
2022-08-18T07:15:00.729Z,24.95
2022-08-18T07:17:43.583Z,24.90
2022-08-18T07:20:19.081Z,24.75
2022-08-18T07:23:00.266Z,25.07
2022-08-18T07:25:29.899Z,25.23
2022-08-18T07:27:56.352Z,25.24
2022-08-18T07:30:36.106Z,25.19
2022-08-18T07:33:09.601Z,25.46
2022-08-18T07:35:40.589Z,25.50
2022-08-18T07:38:40.581Z,25.67
2022-08-18T07:41:09.129Z,25.70
2022-08-18T07:43:40.961Z,25.61
2022-08-18T07:46:14.573Z,25.69
2022-08-18T07:48:39.655Z,25.84
2022-08-18T07:51:24.173Z,25.98
2022-08-18T07:53:56.808Z,25.94
2022-08-18T07:56:33.899Z,26.17
2022-08-18T07:59:04.131Z,26.30
2022-08-18T08:01:37.634Z,26.29
2022-08-18T08:04:25.355Z,26.18
2022-08-18T08:07:22.834Z,26.46
2022-08-18T08:09:53.833Z,26.25
2022-08-18T08:12:31.182Z,26.19
2022-08-18T08:15:05.296Z,26.29
2022-08-18T08:17:36.004Z,26.35
2022-08-18T08:20:19.528Z,26.40
2022-08-18T08:22:59.417Z,26.67
2022-08-18T08:25:46.374Z,26.76
2022-08-18T08:28:32.043Z,26.58
2022-08-18T08:31:33.001Z,26.85
2022-08-18T08:34:06.013Z,26.86
2022-08-18T08:36:36.017Z,26.88
2022-08-18T08:39:05.836Z,27.11
2022-08-18T08:41:39.745Z,27.22
2022-08-18T08:44:22.594Z,27.07
2022-08-18T08:46:52.326Z,27.41
2022-08-18T08:49:31.098Z,27.63
2022-08-18T08:52:01.305Z,27.74
2022-08-18T08:54:28.917Z,27.80
2022-08-18T08:56:56.693Z,27.83
2022-08-18T08:59:25.160Z,27.72
2022-08-18T09:02:01.022Z,27.54
2022-08-18T09:04:37.102Z,27.83
2022-08-18T09:07:17.327Z,27.98
2022-08-18T09:10:09.116Z,27.82
2022-08-18T09:12:56.457Z,27.63
2022-08-18T09:15:45.995Z,28.05
2022-08-18T09:18:42.625Z,28.15
2022-08-18T09:21:22.928Z,27.91
2022-08-18T09:23:49.985Z,28.13
2022-08-18T09:26:41.948Z,28.23
2022-08-18T09:29:23.563Z,28.23
2022-08-18T09:31:48.821Z,28.33
2022-08-18T09:34:40.292Z,28.56
2022-08-18T09:37:21.522Z,28.72
2022-08-18T09:41:01.223Z,28.87
2022-08-18T09:46:04.592Z,28.79
2022-08-18T09:48:36.295Z,29.44
2022-08-18T09:50:38.259Z,28.49
2022-08-18T09:51:40.047Z,29.43
2022-08-18T09:57:24.400Z,29.89
2022-08-18T10:03:26.473Z,30.29
2022-08-18T10:06:20.896Z,29.80
2022-08-18T10:12:30.712Z,30.17
2022-08-18T10:15:33.106Z,31.00
2022-08-18T10:18:42.025Z,31.26
2022-08-18T10:21:20.914Z,31.07
2022-08-18T10:24:35.917Z,31.29
2022-08-18T10:27:02.660Z,31.74
2022-08-18T10:29:54.366Z,31.47
2022-08-18T10:32:54.105Z,32.05
2022-08-18T10:35:59.776Z,31.69
2022-08-18T10:38:40.011Z,31.99
2022-08-18T10:41:22.293Z,32.32
2022-08-18T10:43:55.898Z,31.70
2022-08-18T10:46:42.611Z,32.59
2022-08-18T10:49:25.879Z,32.45
2022-08-18T10:52:19.366Z,32.42
2022-08-18T10:55:18.247Z,32.29
2022-08-18T10:58:04.567Z,32.64
2022-08-18T11:00:46.605Z,32.71
2022-08-18T11:03:50.614Z,32.92
2022-08-18T11:06:06.972Z,33.00
2022-08-18T11:08:46.780Z,33.39
2022-08-18T11:14:12.618Z,33.08
2022-08-18T11:16:50.215Z,33.65
2022-08-18T11:19:20.401Z,34.17
2022-08-18T11:21:46.356Z,34.38
2022-08-18T11:24:21.085Z,34.57
2022-08-18T11:26:52.807Z,34.49
2022-08-18T11:29:32.640Z,35.04
2022-08-18T11:32:03.755Z,34.98
2022-08-18T11:34:38.524Z,35.43
2022-08-18T11:37:22.506Z,35.59
2022-08-18T11:39:52.078Z,35.38
2022-08-18T11:42:21.828Z,35.56
2022-08-18T11:44:49.135Z,36.01
2022-08-18T11:47:18.331Z,36.09
2022-08-18T11:49:58.575Z,36.13
2022-08-18T11:55:24.244Z,35.60
2022-08-18T11:57:59.087Z,35.61
2022-08-18T12:03:49.080Z,35.41
2022-08-18T12:06:22.089Z,36.00
2022-08-18T12:08:58.814Z,36.23
2022-08-18T12:11:28.105Z,36.49
2022-08-18T12:14:29.738Z,35.74
2022-08-18T12:16:53.934Z,36.55
2022-08-18T12:19:19.608Z,35.80
2022-08-18T12:21:52.029Z,36.69
2022-08-18T12:24:26.274Z,36.79
2022-08-18T12:26:53.089Z,37.07
2022-08-18T12:29:19.614Z,37.21
2022-08-18T12:31:48.551Z,36.93
2022-08-18T12:34:13.562Z,36.58
2022-08-18T12:36:39.461Z,36.98
2022-08-18T12:39:03.387Z,36.89
2022-08-18T12:41:29.317Z,37.03
2022-08-18T12:43:58.470Z,37.06
2022-08-18T12:46:25.595Z,36.76
2022-08-18T12:48:49.858Z,36.73
2022-08-18T12:51:13.916Z,36.06
2022-08-18T12:53:59.416Z,36.18
2022-08-18T12:56:26.212Z,35.81
2022-08-18T12:58:50.948Z,35.73
2022-08-18T13:01:17.705Z,36.57
2022-08-18T13:03:44.673Z,35.68
2022-08-18T13:06:17.010Z,36.36
2022-08-18T13:08:49.883Z,36.19
2022-08-18T13:11:18.805Z,36.36
2022-08-18T13:13:48.340Z,36.30
2022-08-18T13:16:38.966Z,36.22
2022-08-18T13:19:06.025Z,36.28
2022-08-18T13:21:39.079Z,36.23
2022-08-18T13:24:05.842Z,36.24
2022-08-18T13:26:37.329Z,35.57
2022-08-18T13:29:01.369Z,35.76
2022-08-18T13:31:26.149Z,36.10
2022-08-18T13:33:57.522Z,36.58
2022-08-18T13:36:25.874Z,36.56
2022-08-18T13:38:54.776Z,36.78
2022-08-18T13:41:18.915Z,37.19
2022-08-18T13:43:47.952Z,36.63
2022-08-18T13:46:15.636Z,36.65
2022-08-18T13:48:41.570Z,36.58
2022-08-18T13:51:08.291Z,37.04
2022-08-18T13:53:34.310Z,36.31
2022-08-18T13:55:59.358Z,36.76
2022-08-18T13:58:23.143Z,37.19
2022-08-18T14:01:22.920Z,37.48
2022-08-18T14:03:46.857Z,37.49
2022-08-18T14:06:13.322Z,37.41
2022-08-18T14:08:38.977Z,36.60
2022-08-18T14:11:05.292Z,37.06
2022-08-18T14:13:30.205Z,37.47
2022-08-18T14:16:02.887Z,37.52
2022-08-18T14:18:30.753Z,37.64
2022-08-18T14:21:12.801Z,37.72
2022-08-18T14:24:01.015Z,37.05
2022-08-18T14:26:42.444Z,37.46
2022-08-18T14:29:06.624Z,37.34
2022-08-18T14:31:35.584Z,36.17
2022-08-18T14:34:04.160Z,36.09
2022-08-18T14:36:29.519Z,35.48
2022-08-18T14:38:55.531Z,36.17
2022-08-18T14:41:19.664Z,36.44
2022-08-18T14:44:11.092Z,35.76
2022-08-18T14:46:33.146Z,35.23
2022-08-18T14:48:56.936Z,35.82
2022-08-18T14:51:23.432Z,35.57
2022-08-18T14:53:51.343Z,34.27
2022-08-18T14:56:17.896Z,34.52
2022-08-18T14:58:41.712Z,33.86
2022-08-18T15:01:10.564Z,33.69
2022-08-18T15:03:36.630Z,33.74
2022-08-18T15:06:05.204Z,33.70
2022-08-18T15:08:29.891Z,32.91
2022-08-18T15:10:53.684Z,32.24
2022-08-18T15:13:19.032Z,32.74
2022-08-18T15:15:51.167Z,32.61
2022-08-18T15:18:15.874Z,31.83
2022-08-18T15:21:03.956Z,31.62
2022-08-18T15:24:00.064Z,32.08
2022-08-18T15:26:27.679Z,31.71
2022-08-18T15:28:54.988Z,31.94
2022-08-18T15:34:08.304Z,32.04
2022-08-18T15:36:36.413Z,31.82
2022-08-18T15:39:04.041Z,31.81
2022-08-18T15:41:37.783Z,31.91
2022-08-18T15:44:11.265Z,31.45
2022-08-18T15:46:37.470Z,31.65
2022-08-18T15:49:01.647Z,31.36
2022-08-18T15:51:25.460Z,31.37
2022-08-18T15:53:49.367Z,31.69
2022-08-18T15:56:16.823Z,31.45
2022-08-18T15:58:46.765Z,31.88
2022-08-18T16:01:30.454Z,31.68
2022-08-18T16:03:55.958Z,31.72
2022-08-18T16:06:27.825Z,31.92
2022-08-18T16:08:56.322Z,31.91
2022-08-18T16:11:24.592Z,31.91
2022-08-18T16:13:53.182Z,31.94
2022-08-18T16:16:29.065Z,31.93
2022-08-18T16:19:00.139Z,31.83
2022-08-18T16:21:25.068Z,31.59
2022-08-18T16:23:51.247Z,31.53
2022-08-18T16:28:47.749Z,31.81
2022-08-18T16:31:14.468Z,31.52
2022-08-18T16:33:39.714Z,30.62
2022-08-18T16:36:08.320Z,30.31
2022-08-18T16:38:32.183Z,29.35
2022-08-18T16:40:55.963Z,28.99
2022-08-18T16:43:19.748Z,28.93
2022-08-18T16:45:43.815Z,28.98
2022-08-18T16:48:08.322Z,28.92
2022-08-18T16:50:33.476Z,28.27
2022-08-18T16:52:58.615Z,28.61
2022-08-18T16:55:22.859Z,28.39
2022-08-18T16:58:04.492Z,28.63
2022-08-18T17:00:49.803Z,28.06
2022-08-18T17:03:36.342Z,27.96
2022-08-18T17:06:07.575Z,27.61
2022-08-18T17:08:34.299Z,27.08
2022-08-18T17:10:58.029Z,27.31
2022-08-18T17:13:21.845Z,26.85
2022-08-18T17:15:49.677Z,26.68
2022-08-18T17:18:13.544Z,26.40
2022-08-18T17:20:37.681Z,26.24
2022-08-18T17:23:03.407Z,25.95
2022-08-18T17:25:28.697Z,26.58
2022-08-18T17:27:55.848Z,25.80
2022-08-18T17:30:23.623Z,25.91
2022-08-18T17:32:52.007Z,26.07
2022-08-18T17:35:21.085Z,25.45
2022-08-18T17:37:59.399Z,25.41
2022-08-18T17:40:32.279Z,25.26
2022-08-18T17:42:57.399Z,25.11
2022-08-18T17:45:23.061Z,24.79
2022-08-18T17:47:56.200Z,24.96
2022-08-18T17:50:47.467Z,24.91
2022-08-18T17:53:12.211Z,24.93
2022-08-18T17:55:43.832Z,24.84
2022-08-18T17:58:16.411Z,24.76
2022-08-18T18:00:40.531Z,25.03
2022-08-18T18:03:04.288Z,25.26
2022-08-18T18:05:37.943Z,24.74
2022-08-18T18:08:02.709Z,24.91
2022-08-18T18:11:02.237Z,25.11
2022-08-18T18:13:32.675Z,24.87
2022-08-18T18:16:00.916Z,24.71
2022-08-18T18:18:37.296Z,24.67
2022-08-18T18:21:08.795Z,24.99
2022-08-18T18:23:38.328Z,25.05
2022-08-18T18:26:04.247Z,25.29
2022-08-18T18:28:33.267Z,25.23
2022-08-18T18:30:58.781Z,25.22
2022-08-18T18:33:24.219Z,25.36
2022-08-18T18:35:57.080Z,25.34
2022-08-18T18:38:29.831Z,25.34
2022-08-18T18:41:00.727Z,24.98
2022-08-18T18:43:36.556Z,24.62
2022-08-18T18:46:17.901Z,24.56
2022-08-18T18:48:52.736Z,24.11
2022-08-18T18:51:33.263Z,24.06
2022-08-18T18:54:08.605Z,24.48
2022-08-18T18:56:37.459Z,24.35
2022-08-18T18:59:16.399Z,24.38
2022-08-18T19:01:51.744Z,24.29
2022-08-18T19:04:22.573Z,24.45
2022-08-18T19:06:55.204Z,24.55
2022-08-18T19:09:25.775Z,24.31
2022-08-18T19:12:05.332Z,24.18
2022-08-18T19:14:35.251Z,23.91
2022-08-18T19:17:06.096Z,24.12
2022-08-18T19:19:39.105Z,23.76
2022-08-18T19:22:11.034Z,23.80
2022-08-18T19:24:42.660Z,24.05
2022-08-18T19:27:08.919Z,23.80
2022-08-18T19:29:42.416Z,24.08
2022-08-18T19:32:16.327Z,24.10
2022-08-18T19:34:52.549Z,24.26
2022-08-18T19:37:31.094Z,24.01
2022-08-18T19:40:05.248Z,23.77
2022-08-18T19:42:38.559Z,23.95
2022-08-18T19:45:17.040Z,24.18
2022-08-18T19:47:50.394Z,23.99
2022-08-18T19:50:22.444Z,24.03
2022-08-18T19:53:09.029Z,24.16
2022-08-18T19:55:48.697Z,23.97
2022-08-18T19:59:11.513Z,23.92
2022-08-18T20:01:42.167Z,23.77
2022-08-18T20:04:26.967Z,23.73
2022-08-18T20:07:20.688Z,23.69
2022-08-18T20:10:06.836Z,23.69
2022-08-18T20:13:01.117Z,23.56
2022-08-18T20:15:28.524Z,23.57
2022-08-18T20:18:08.064Z,23.44
2022-08-18T20:20:34.621Z,23.26
2022-08-18T20:23:00.597Z,23.36
2022-08-18T20:25:47.076Z,23.51
2022-08-18T20:28:37.567Z,23.42
2022-08-18T20:31:14.936Z,23.56
2022-08-18T20:33:46.286Z,23.26
2022-08-18T20:36:27.201Z,23.31
2022-08-18T20:38:54.203Z,23.35
2022-08-18T20:41:44.623Z,23.65
2022-08-18T20:44:44.664Z,23.72
2022-08-18T20:47:42.091Z,23.77
2022-08-18T20:50:42.244Z,23.67
2022-08-18T20:53:19.611Z,23.63
2022-08-18T20:55:56.899Z,23.74
2022-08-18T20:58:26.868Z,23.78
2022-08-18T21:00:54.929Z,23.84
2022-08-18T21:03:21.427Z,23.84
2022-08-18T21:05:48.460Z,23.86
2022-08-18T21:08:27.564Z,23.65
2022-08-18T21:10:56.472Z,23.78
2022-08-18T21:13:38.460Z,23.68
2022-08-18T21:16:02.276Z,23.71
2022-08-18T21:18:28.649Z,23.74
2022-08-18T21:20:56.801Z,23.63
2022-08-18T21:23:29.555Z,23.60
2022-08-18T21:25:56.695Z,23.65
2022-08-18T21:28:21.644Z,23.63
2022-08-18T21:31:42.438Z,23.38
2022-08-18T21:33:41.755Z,23.36
2022-08-18T21:36:18.363Z,23.29
2022-08-18T21:39:06.290Z,23.25
2022-08-18T21:41:33.548Z,22.73
2022-08-18T21:44:04.367Z,22.79
2022-08-18T21:46:32.229Z,22.84
2022-08-18T21:49:00.397Z,22.84
2022-08-18T21:51:31.235Z,22.81
2022-08-18T21:53:56.102Z,22.78
2022-08-18T21:56:27.954Z,22.67
2022-08-18T21:59:06.184Z,22.65
2022-08-18T22:01:30.480Z,22.34
2022-08-18T22:03:58.390Z,22.41
2022-08-18T22:06:38.319Z,22.51
2022-08-18T22:09:28.083Z,22.64
2022-08-18T22:12:41.712Z,22.55
2022-08-18T22:15:09.472Z,22.57
2022-08-18T22:17:38.415Z,22.65
2022-08-18T22:20:35.669Z,22.77
2022-08-18T22:23:24.515Z,22.87
2022-08-18T22:25:49.078Z,22.77
2022-08-18T22:28:13.136Z,22.60
2022-08-18T22:30:37.096Z,22.62
2022-08-18T22:33:01.077Z,22.29
2022-08-18T22:35:24.805Z,22.47
2022-08-18T22:37:50.812Z,22.46
2022-08-18T22:40:17.445Z,22.57
2022-08-18T22:42:45.853Z,22.27
2022-08-18T22:45:13.625Z,22.40
2022-08-18T22:47:43.702Z,22.40
2022-08-18T22:50:10.772Z,22.19
2022-08-18T22:52:38.664Z,22.42
2022-08-18T22:55:07.932Z,22.32
2022-08-18T22:57:34.543Z,22.06
2022-08-18T23:00:00.076Z,21.68
2022-08-18T23:02:24.080Z,21.94
2022-08-18T23:04:47.989Z,21.76
2022-08-18T23:07:11.839Z,21.95
2022-08-18T23:09:36.024Z,21.94
2022-08-18T23:12:04.577Z,22.11
2022-08-18T23:14:32.603Z,22.26
2022-08-18T23:16:56.378Z,22.27
2022-08-18T23:19:22.215Z,22.29
2022-08-18T23:21:46.408Z,22.16
2022-08-18T23:24:12.680Z,21.94
2022-08-18T23:26:36.665Z,22.07
2022-08-18T23:29:00.425Z,22.20
2022-08-18T23:31:25.646Z,22.24
2022-08-18T23:33:49.603Z,22.20
2022-08-18T23:36:13.277Z,22.11
2022-08-18T23:38:38.388Z,22.08
2022-08-18T23:41:02.209Z,22.16
2022-08-18T23:43:26.179Z,22.00
2022-08-18T23:45:50.587Z,21.97
2022-08-18T23:48:15.785Z,21.82
2022-08-18T23:50:43.388Z,21.78
2022-08-18T23:53:08.648Z,21.99
2022-08-18T23:55:33.832Z,21.99
2022-08-18T23:57:58.119Z,21.91
